Accueil
METAR-TAF:

METAR-TAF

Aéroports :

Gombe Lawanti International Airport

Gombe, Nigeria

latitude: 10-18-19N, longitude: 10-54-31E, altitude: 505 m

METAR: absent

Heure: 20:35 (19:35 UTC)

Prévision

Le bulletin a été fait il y a 2 heures et 35 minutes, à 17:00 UTC
Prévision valable du 29 à 18 UTC au 30 à 24 UTC
Vent 9 kt de est
Visibilité: 3000 m
brume sèche
Temporairement
du 29 à 22 UTC au 30 à 04 UTC
Visibilité: 8000 m

TAF: DNGO 291700Z 2918/3024 10009KT 3000 HZ NSC TEMPO 2922/3004 8000 NSW

Observations et prévisions météorologiques de plus de 4000 aéroports (messages METAR et TAF).

Les stations disponibles sont représentées par des disques jaunes et rouges sur la carte.

Passer la souris dessus pour voir le nom de la station.

Cliquer dessus pour voir les observations et prévisions météorologiques.

Pour changer de carte: cliquez sur les boutons verts avec une croix noire pour zoomer, sur le bouton vert avec un tiret pour effectuer un zoom arrière, ou sur les flèches vertes pour les cartes adjacentes.


METAR-TAF: